sensor_id;sensor_type;location;lat;lon;timestamp;pressure;altitude;pressure_sealevel;temperature;humidity
56668;BME280;42542;48.360;10.958;2022-11-20T00:01:08;95569.88;;;5.47;100.00
56668;BME280;42542;48.360;10.958;2022-11-20T00:04:10;95572.38;;;5.48;100.00
56668;BME280;42542;48.360;10.958;2022-11-20T00:07:13;95570.69;;;5.47;100.00
56668;BME280;42542;48.360;10.958;2022-11-20T00:10:14;95569.19;;;5.45;100.00
56668;BME280;42542;48.360;10.958;2022-11-20T00:13:16;95572.69;;;5.45;100.00
56668;BME280;42542;48.360;10.958;2022-11-20T00:16:20;95567.53;;;5.44;100.00
56668;BME280;42542;48.360;10.958;2022-11-20T00:19:22;95573.78;;;5.43;100.00
56668;BME280;42542;48.360;10.958;2022-11-20T00:22:23;95579.41;;;5.40;100.00
56668;BME280;42542;48.360;10.958;2022-11-20T00:25:25;95585.69;;;5.39;100.00
56668;BME280;42542;48.360;10.958;2022-11-20T00:28:26;95585.81;;;5.37;100.00
56668;BME280;42542;48.360;10.958;2022-11-20T00:31:29;95585.97;;;5.36;100.00
56668;BME280;42542;48.360;10.958;2022-11-20T00:34:31;95585.56;;;5.31;100.00
56668;BME280;42542;48.360;10.958;2022-11-20T00:37:32;95589.59;;;5.35;100.00
56668;BME280;42542;48.360;10.958;2022-11-20T00:40:34;95586.28;;;5.33;100.00
56668;BME280;42542;48.360;10.958;2022-11-20T00:43:36;95589.72;;;5.33;100.00
56668;BME280;42542;48.360;10.958;2022-11-20T00:46:38;95589.91;;;5.32;100.00
56668;BME280;42542;48.360;10.958;2022-11-20T00:49:40;95594.63;;;5.28;100.00
56668;BME280;42542;48.360;10.958;2022-11-20T00:52:41;95595.47;;;5.29;100.00
56668;BME280;42542;48.360;10.958;2022-11-20T00:55:43;95591.16;;;5.28;100.00
56668;BME280;42542;48.360;10.958;2022-11-20T00:58:46;95598.25;;;5.27;100.00
56668;BME280;42542;48.360;10.958;2022-11-20T01:01:47;95601.22;;;5.24;100.00
56668;BME280;42542;48.360;10.958;2022-11-20T01:04:49;95602.19;;;5.23;100.00
56668;BME280;42542;48.360;10.958;2022-11-20T01:07:51;95611.25;;;5.21;100.00
56668;BME280;42542;48.360;10.958;2022-11-20T01:10:52;95604.28;;;5.20;100.00
56668;BME280;42542;48.360;10.958;2022-11-20T01:13:54;95598.31;;;5.18;100.00
56668;BME280;42542;48.360;10.958;2022-11-20T01:16:56;95605.28;;;5.19;100.00
56668;BME280;42542;48.360;10.958;2022-11-20T01:19:58;95606.25;;;5.18;99.86
56668;BME280;42542;48.360;10.958;2022-11-20T01:23:03;95608.06;;;5.17;100.00
56668;BME280;42542;48.360;10.958;2022-11-20T01:26:12;95607.22;;;5.17;99.80
56668;BME280;42542;48.360;10.958;2022-11-20T01:29:16;95608.47;;;5.13;99.74
56668;BME280;42542;48.360;10.958;2022-11-20T01:32:18;95606.00;;;5.11;99.66
56668;BME280;42542;48.360;10.958;2022-11-20T01:35:19;95604.84;;;5.14;99.91
56668;BME280;42542;48.360;10.958;2022-11-20T01:38:21;95601.81;;;5.08;99.95
56668;BME280;42542;48.360;10.958;2022-11-20T01:41:25;95611.31;;;5.11;99.63
56668;BME280;42542;48.360;10.958;2022-11-20T01:44:58;95606.13;;;5.09;99.18
56668;BME280;42542;48.360;10.958;2022-11-20T01:48:00;95612.41;;;5.08;99.53
56668;BME280;42542;48.360;10.958;2022-11-20T01:51:02;95625.66;;;5.08;99.19
56668;BME280;42542;48.360;10.958;2022-11-20T01:54:09;95615.19;;;5.07;99.28
56668;BME280;42542;48.360;10.958;2022-11-20T01:57:12;95627.75;;;5.05;99.43
56668;BME280;42542;48.360;10.958;2022-11-20T02:00:17;95629.00;;;5.01;98.95
56668;BME280;42542;48.360;10.958;2022-11-20T02:03:20;95623.84;;;4.99;99.42
56668;BME280;42542;48.360;10.958;2022-11-20T02:06:25;95611.06;;;4.95;99.04
56668;BME280;42542;48.360;10.958;2022-11-20T02:09:27;95623.31;;;4.96;98.90
56668;BME280;42542;48.360;10.958;2022-11-20T02:12:29;95623.16;;;4.97;99.19
56668;BME280;42542;48.360;10.958;2022-11-20T02:15:49;95628.63;;;4.96;99.13
56668;BME280;42542;48.360;10.958;2022-11-20T02:18:53;95624.44;;;4.93;99.40
56668;BME280;42542;48.360;10.958;2022-11-20T02:22:02;95625.41;;;4.92;99.13
56668;BME280;42542;48.360;10.958;2022-11-20T02:25:05;95622.75;;;4.92;99.09
56668;BME280;42542;48.360;10.958;2022-11-20T02:28:08;95628.06;;;4.92;99.27
56668;BME280;42542;48.360;10.958;2022-11-20T02:31:09;95618.88;;;4.87;99.43
56668;BME280;42542;48.360;10.958;2022-11-20T02:34:11;95620.69;;;4.86;99.05
56668;BME280;42542;48.360;10.958;2022-11-20T02:37:13;95609.38;;;4.84;99.31
56668;BME280;42542;48.360;10.958;2022-11-20T02:40:15;95618.03;;;4.86;99.37
56668;BME280;42542;48.360;10.958;2022-11-20T02:43:17;95613.72;;;4.85;99.32
56668;BME280;42542;48.360;10.958;2022-11-20T02:46:18;95619.13;;;4.84;99.77
56668;BME280;42542;48.360;10.958;2022-11-20T02:49:20;95607.59;;;4.75;98.95
56668;BME280;42542;48.360;10.958;2022-11-20T02:52:22;95609.25;;;4.76;99.24
56668;BME280;42542;48.360;10.958;2022-11-20T02:55:23;95619.72;;;4.78;99.16
56668;BME280;42542;48.360;10.958;2022-11-20T02:58:25;95607.44;;;4.77;99.10
56668;BME280;42542;48.360;10.958;2022-11-20T03:01:26;95611.91;;;4.76;99.68
56668;BME280;42542;48.360;10.958;2022-11-20T03:04:28;95616.22;;;4.77;99.71
56668;BME280;42542;48.360;10.958;2022-11-20T03:07:30;95621.66;;;4.76;99.07
56668;BME280;42542;48.360;10.958;2022-11-20T03:10:31;95618.88;;;4.77;99.52
56668;BME280;42542;48.360;10.958;2022-11-20T03:13:33;95606.91;;;4.73;99.50
56668;BME280;42542;48.360;10.958;2022-11-20T03:16:35;95620.69;;;4.77;99.19
56668;BME280;42542;48.360;10.958;2022-11-20T03:19:37;95623.31;;;4.77;99.33
56668;BME280;42542;48.360;10.958;2022-11-20T03:22:38;95622.34;;;4.78;99.14
56668;BME280;42542;48.360;10.958;2022-11-20T03:25:40;95618.88;;;4.77;98.85
56668;BME280;42542;48.360;10.958;2022-11-20T03:28:46;95618.72;;;4.79;98.92
56668;BME280;42542;48.360;10.958;2022-11-20T03:31:48;95617.91;;;4.78;98.59
56668;BME280;42542;48.360;10.958;2022-11-20T03:34:49;95616.09;;;4.79;98.85
56668;BME280;42542;48.360;10.958;2022-11-20T03:37:51;95624.88;;;4.79;98.83
56668;BME280;42542;48.360;10.958;2022-11-20T03:40:58;95622.91;;;4.81;98.97
56668;BME280;42542;48.360;10.958;2022-11-20T03:44:02;95621.13;;;4.82;98.92
56668;BME280;42542;48.360;10.958;2022-11-20T03:47:03;95617.63;;;4.81;98.54
56668;BME280;42542;48.360;10.958;2022-11-20T03:50:05;95616.66;;;4.82;98.67
56668;BME280;42542;48.360;10.958;2022-11-20T03:53:07;95607.16;;;4.80;98.19
56668;BME280;42542;48.360;10.958;2022-11-20T03:56:10;95614.97;;;4.81;97.58
56668;BME280;42542;48.360;10.958;2022-11-20T03:59:12;95604.66;;;4.78;97.62
56668;BME280;42542;48.360;10.958;2022-11-20T04:02:13;95608.00;;;4.80;97.02
56668;BME280;42542;48.360;10.958;2022-11-20T04:05:15;95612.34;;;4.81;96.93
56668;BME280;42542;48.360;10.958;2022-11-20T04:08:17;95612.16;;;4.83;97.04
56668;BME280;42542;48.360;10.958;2022-11-20T04:11:21;95614.69;;;4.84;96.67
56668;BME280;42542;48.360;10.958;2022-11-20T04:14:23;95609.69;;;4.81;96.29
56668;BME280;42542;48.360;10.958;2022-11-20T04:17:25;95618.47;;;4.82;96.35
56668;BME280;42542;48.360;10.958;2022-11-20T04:20:26;95614.81;;;4.83;96.12
56668;BME280;42542;48.360;10.958;2022-11-20T04:23:28;95613.84;;;4.84;96.18
56668;BME280;42542;48.360;10.958;2022-11-20T04:26:30;95609.50;;;4.83;96.00
56668;BME280;42542;48.360;10.958;2022-11-20T04:29:31;95616.66;;;4.82;95.98
56668;BME280;42542;48.360;10.958;2022-11-20T04:32:33;95611.19;;;4.84;95.68
56668;BME280;42542;48.360;10.958;2022-11-20T04:35:35;95611.19;;;4.84;95.48
56668;BME280;42542;48.360;10.958;2022-11-20T04:38:37;95607.56;;;4.85;95.37
56668;BME280;42542;48.360;10.958;2022-11-20T04:41:39;95612.72;;;4.86;95.30
56668;BME280;42542;48.360;10.958;2022-11-20T04:44:41;95604.66;;;4.88;95.59
56668;BME280;42542;48.360;10.958;2022-11-20T04:47:42;95603.94;;;4.86;95.20
56668;BME280;42542;48.360;10.958;2022-11-20T04:50:44;95605.50;;;4.88;95.77
56668;BME280;42542;48.360;10.958;2022-11-20T04:53:45;95607.31;;;4.88;95.30
56668;BME280;42542;48.360;10.958;2022-11-20T04:56:48;95602.00;;;4.88;95.15
56668;BME280;42542;48.360;10.958;2022-11-20T04:59:51;95599.22;;;4.89;94.75
56668;BME280;42542;48.360;10.958;2022-11-20T05:02:53;95605.34;;;4.90;95.30
56668;BME280;42542;48.360;10.958;2022-11-20T05:05:54;95596.00;;;4.86;94.51
56668;BME280;42542;48.360;10.958;2022-11-20T05:08:56;95607.31;;;4.88;94.44
56668;BME280;42542;48.360;10.958;2022-11-20T05:11:57;95597.94;;;4.84;94.76
56668;BME280;42542;48.360;10.958;2022-11-20T05:14:59;95606.72;;;4.84;94.57
56668;BME280;42542;48.360;10.958;2022-11-20T05:18:00;95606.88;;;4.83;94.57
56668;BME280;42542;48.360;10.958;2022-11-20T05:21:03;95599.09;;;4.81;94.35
56668;BME280;42542;48.360;10.958;2022-11-20T05:24:04;95608.00;;;4.80;94.85
56668;BME280;42542;48.360;10.958;2022-11-20T05:27:07;95599.38;;;4.78;94.68
56668;BME280;42542;48.360;10.958;2022-11-20T05:30:09;95605.63;;;4.77;94.07
56668;BME280;42542;48.360;10.958;2022-11-20T05:33:11;95598.66;;;4.76;93.92
56668;BME280;42542;48.360;10.958;2022-11-20T05:36:14;95602.31;;;4.75;94.37
56668;BME280;42542;48.360;10.958;2022-11-20T05:39:15;95600.47;;;4.76;94.12
56668;BME280;42542;48.360;10.958;2022-11-20T05:42:17;95604.13;;;4.75;94.18
56668;BME280;42542;48.360;10.958;2022-11-20T05:45:34;95601.47;;;4.75;93.66
56668;BME280;42542;48.360;10.958;2022-11-20T05:48:36;95611.06;;;4.76;94.02
56668;BME280;42542;48.360;10.958;2022-11-20T05:51:38;95602.44;;;4.74;93.35
56668;BME280;42542;48.360;10.958;2022-11-20T05:54:39;95618.03;;;4.77;92.92
56668;BME280;42542;48.360;10.958;2022-11-20T05:57:41;95617.19;;;4.76;93.13
56668;BME280;42542;48.360;10.958;2022-11-20T06:00:43;95620.53;;;4.78;93.01
56668;BME280;42542;48.360;10.958;2022-11-20T06:03:45;95626.53;;;4.80;92.67
56668;BME280;42542;48.360;10.958;2022-11-20T06:06:48;95610.09;;;4.77;93.37
56668;BME280;42542;48.360;10.958;2022-11-20T06:09:50;95621.94;;;4.82;92.80
56668;BME280;42542;48.360;10.958;2022-11-20T06:12:51;95618.28;;;4.83;92.63
56668;BME280;42542;48.360;10.958;2022-11-20T06:15:53;95624.44;;;4.84;92.75
56668;BME280;42542;48.360;10.958;2022-11-20T06:18:55;95627.06;;;4.84;92.92
56668;BME280;42542;48.360;10.958;2022-11-20T06:21:57;95628.75;;;4.85;93.40
56668;BME280;42542;48.360;10.958;2022-11-20T06:24:58;95627.78;;;4.86;92.60
56668;BME280;42542;48.360;10.958;2022-11-20T06:28:00;95632.09;;;4.87;93.42
56668;BME280;42542;48.360;10.958;2022-11-20T06:31:02;95630.44;;;4.86;93.14
56668;BME280;42542;48.360;10.958;2022-11-20T06:34:05;95633.78;;;4.88;92.97
56668;BME280;42542;48.360;10.958;2022-11-20T06:37:07;95637.28;;;4.88;93.74
56668;BME280;42542;48.360;10.958;2022-11-20T06:40:09;95634.75;;;4.87;93.52
56668;BME280;42542;48.360;10.958;2022-11-20T06:43:11;95644.38;;;4.88;93.27
56668;BME280;42542;48.360;10.958;2022-11-20T06:46:14;95647.03;;;4.88;92.75
56668;BME280;42542;48.360;10.958;2022-11-20T06:49:16;95654.97;;;4.88;92.62
56668;BME280;42542;48.360;10.958;2022-11-20T06:52:17;95654.84;;;4.89;92.68
56668;BME280;42542;48.360;10.958;2022-11-20T06:55:19;95653.16;;;4.88;92.24
56668;BME280;42542;48.360;10.958;2022-11-20T06:58:21;95655.66;;;4.90;93.19
56668;BME280;42542;48.360;10.958;2022-11-20T07:01:22;95653.16;;;4.88;92.54
56668;BME280;42542;48.360;10.958;2022-11-20T07:04:24;95663.44;;;4.91;92.68
56668;BME280;42542;48.360;10.958;2022-11-20T07:07:26;95662.47;;;4.92;92.82
56668;BME280;42542;48.360;10.958;2022-11-20T07:10:27;95659.81;;;4.92;92.41
56668;BME280;42542;48.360;10.958;2022-11-20T07:13:29;95658.84;;;4.93;92.19
56668;BME280;42542;48.360;10.958;2022-11-20T07:16:31;95660.41;;;4.96;92.83
56668;BME280;42542;48.360;10.958;2022-11-20T07:19:32;95656.91;;;4.95;92.84
56668;BME280;42542;48.360;10.958;2022-11-20T07:22:34;95658.72;;;4.95;91.55
56668;BME280;42542;48.360;10.958;2022-11-20T07:25:35;95662.06;;;4.97;91.94
56668;BME280;42542;48.360;10.958;2022-11-20T07:28:37;95668.19;;;4.97;91.74
56668;BME280;42542;48.360;10.958;2022-11-20T07:31:39;95666.09;;;5.01;92.21
56668;BME280;42542;48.360;10.958;2022-11-20T07:34:41;95672.22;;;5.01;91.74
56668;BME280;42542;48.360;10.958;2022-11-20T07:37:42;95675.84;;;5.00;91.12
56668;BME280;42542;48.360;10.958;2022-11-20T07:40:44;95671.13;;;5.04;91.94
56668;BME280;42542;48.360;10.958;2022-11-20T07:43:45;95673.59;;;5.05;91.14
56668;BME280;42542;48.360;10.958;2022-11-20T07:46:47;95669.00;;;5.07;91.24
56668;BME280;42542;48.360;10.958;2022-11-20T07:49:48;95663.56;;;5.09;91.48
56668;BME280;42542;48.360;10.958;2022-11-20T07:52:50;95666.22;;;5.09;91.41
56668;BME280;42542;48.360;10.958;2022-11-20T07:55:51;95665.09;;;5.11;91.12
56668;BME280;42542;48.360;10.958;2022-11-20T07:58:53;95657.97;;;5.12;91.17
56668;BME280;42542;48.360;10.958;2022-11-20T08:01:55;95659.53;;;5.15;90.55
56668;BME280;42542;48.360;10.958;2022-11-20T08:04:57;95663.56;;;5.19;90.87
56668;BME280;42542;48.360;10.958;2022-11-20T08:07:58;95671.22;;;5.22;91.02
56668;BME280;42542;48.360;10.958;2022-11-20T08:11:00;95668.44;;;5.23;90.99
56668;BME280;42542;48.360;10.958;2022-11-20T08:14:20;95666.47;;;5.25;90.66
56668;BME280;42542;48.360;10.958;2022-11-20T08:17:21;95665.06;;;5.31;91.36
56668;BME280;42542;48.360;10.958;2022-11-20T08:20:23;95667.59;;;5.32;90.68
56668;BME280;42542;48.360;10.958;2022-11-20T08:23:25;95662.94;;;5.34;90.95
56668;BME280;42542;48.360;10.958;2022-11-20T08:26:26;95670.63;;;5.37;90.91
56668;BME280;42542;48.360;10.958;2022-11-20T08:29:28;95674.66;;;5.41;90.47
56668;BME280;42542;48.360;10.958;2022-11-20T08:32:29;95670.88;;;5.44;90.19
56668;BME280;42542;48.360;10.958;2022-11-20T08:35:35;95668.94;;;5.46;89.83
56668;BME280;42542;48.360;10.958;2022-11-20T08:38:37;95678.13;;;5.52;90.00
56668;BME280;42542;48.360;10.958;2022-11-20T08:41:38;95677.69;;;5.56;89.75
56668;BME280;42542;48.360;10.958;2022-11-20T08:44:40;95676.69;;;5.57;89.21
56668;BME280;42542;48.360;10.958;2022-11-20T08:47:42;95668.47;;;5.60;89.16
56668;BME280;42542;48.360;10.958;2022-11-20T08:50:44;95672.63;;;5.63;89.01
56668;BME280;42542;48.360;10.958;2022-11-20T08:53:46;95661.75;;;5.66;89.11
56668;BME280;42542;48.360;10.958;2022-11-20T08:56:49;95663.81;;;5.72;88.88
56668;BME280;42542;48.360;10.958;2022-11-20T08:59:51;95665.34;;;5.74;89.16
56668;BME280;42542;48.360;10.958;2022-11-20T09:03:06;95657.91;;;5.78;89.13
56668;BME280;42542;48.360;10.958;2022-11-20T09:06:08;95655.00;;;5.81;88.17
56668;BME280;42542;48.360;10.958;2022-11-20T09:09:10;95654.84;;;5.82;87.14
56668;BME280;42542;48.360;10.958;2022-11-20T09:12:11;95656.53;;;5.83;87.14
56668;BME280;42542;48.360;10.958;2022-11-20T09:15:13;95672.13;;;5.86;86.42
56668;BME280;42542;48.360;10.958;2022-11-20T09:18:14;95666.56;;;5.90;87.09
56668;BME280;42542;48.360;10.958;2022-11-20T09:21:16;95661.78;;;5.93;86.63
56668;BME280;42542;48.360;10.958;2022-11-20T09:24:18;95654.81;;;5.92;86.17
56668;BME280;42542;48.360;10.958;2022-11-20T09:27:20;95664.69;;;6.00;86.15
56668;BME280;42542;48.360;10.958;2022-11-20T09:30:23;95664.41;;;6.03;86.52
56668;BME280;42542;48.360;10.958;2022-11-20T09:33:24;95666.09;;;6.04;85.54
56668;BME280;42542;48.360;10.958;2022-11-20T09:36:26;95670.09;;;6.08;86.05
56668;BME280;42542;48.360;10.958;2022-11-20T09:39:28;95655.16;;;6.07;85.79
56668;BME280;42542;48.360;10.958;2022-11-20T09:42:35;95658.22;;;6.12;86.17
56668;BME280;42542;48.360;10.958;2022-11-20T09:55:17;95651.34;;;6.19;85.17
56668;BME280;42542;48.360;10.958;2022-11-20T09:58:40;95658.56;;;6.26;84.94
56668;BME280;42542;48.360;10.958;2022-11-20T10:01:44;95650.13;;;6.31;84.99
56668;BME280;42542;48.360;10.958;2022-11-20T10:05:02;95661.69;;;6.40;84.68
56668;BME280;42542;48.360;10.958;2022-11-20T10:11:48;95631.19;;;6.44;83.39
56668;BME280;42542;48.360;10.958;2022-11-20T10:21:26;95634.38;;;6.47;83.64
56668;BME280;42542;48.360;10.958;2022-11-20T10:31:36;95648.03;;;6.52;83.31
56668;BME280;42542;48.360;10.958;2022-11-20T10:37:53;95652.22;;;6.55;83.54
56668;BME280;42542;48.360;10.958;2022-11-20T10:40:59;95649.69;;;6.53;82.86
56668;BME280;42542;48.360;10.958;2022-11-20T10:44:29;95646.91;;;6.55;82.79
56668;BME280;42542;48.360;10.958;2022-11-20T10:48:20;95641.28;;;6.58;83.09
56668;BME280;42542;48.360;10.958;2022-11-20T10:51:52;95648.63;;;6.64;84.63
56668;BME280;42542;48.360;10.958;2022-11-20T11:01:42;95644.56;;;6.70;83.05
56668;BME280;42542;48.360;10.958;2022-11-20T11:04:54;95642.41;;;6.73;82.84
56668;BME280;42542;48.360;10.958;2022-11-20T11:07:57;95631.63;;;6.75;83.07
56668;BME280;42542;48.360;10.958;2022-11-20T11:11:01;95633.75;;;6.71;81.21
56668;BME280;42542;48.360;10.958;2022-11-20T11:14:09;95634.06;;;6.68;80.79
56668;BME280;42542;48.360;10.958;2022-11-20T11:17:21;95638.53;;;6.68;81.04
56668;BME280;42542;48.360;10.958;2022-11-20T11:20:25;95630.34;;;6.61;81.32
56668;BME280;42542;48.360;10.958;2022-11-20T11:23:40;95639.53;;;6.66;83.65
56668;BME280;42542;48.360;10.958;2022-11-20T11:26:51;95620.88;;;6.58;83.48
56668;BME280;42542;48.360;10.958;2022-11-20T11:30:12;95624.34;;;6.59;84.07
56668;BME280;42542;48.360;10.958;2022-11-20T11:33:21;95615.69;;;6.57;84.01
56668;BME280;42542;48.360;10.958;2022-11-20T11:36:23;95615.19;;;6.53;84.34
56668;BME280;42542;48.360;10.958;2022-11-20T11:39:29;95621.84;;;6.57;84.66
56668;BME280;42542;48.360;10.958;2022-11-20T11:42:31;95613.72;;;6.59;84.74
56668;BME280;42542;48.360;10.958;2022-11-20T11:45:33;95605.47;;;6.62;84.95
56668;BME280;42542;48.360;10.958;2022-11-20T11:48:35;95608.13;;;6.62;84.15
56668;BME280;42542;48.360;10.958;2022-11-20T11:55:02;95600.53;;;6.67;83.97
56668;BME280;42542;48.360;10.958;2022-11-20T12:01:34;95600.22;;;6.70;83.28
56668;BME280;42542;48.360;10.958;2022-11-20T12:04:48;95597.41;;;6.72;83.49
56668;BME280;42542;48.360;10.958;2022-11-20T12:14:46;95597.41;;;6.72;85.94
56668;BME280;42542;48.360;10.958;2022-11-20T12:17:54;95601.59;;;6.74;86.00
56668;BME280;42542;48.360;10.958;2022-11-20T12:21:18;95596.56;;;6.71;86.73
56668;BME280;42542;48.360;10.958;2022-11-20T12:42:08;95593.94;;;6.53;87.87
56668;BME280;42542;48.360;10.958;2022-11-20T12:52:52;95591.56;;;6.50;87.54
56668;BME280;42542;48.360;10.958;2022-11-20T13:05:27;95586.41;;;6.49;87.55
56668;BME280;42542;48.360;10.958;2022-11-20T13:08:41;95588.09;;;6.50;87.82
56668;BME280;42542;48.360;10.958;2022-11-20T13:11:51;95586.41;;;6.49;87.92
56668;BME280;42542;48.360;10.958;2022-11-20T13:18:53;95586.59;;;6.47;87.41
56668;BME280;42542;48.360;10.958;2022-11-20T13:21:55;95584.09;;;6.46;87.70
56668;BME280;42542;48.360;10.958;2022-11-20T13:24:57;95582.25;;;6.46;87.78
56668;BME280;42542;48.360;10.958;2022-11-20T13:28:45;95578.91;;;6.44;87.43
56668;BME280;42542;48.360;10.958;2022-11-20T13:31:30;95574.59;;;6.43;88.27
56668;BME280;42542;48.360;10.958;2022-11-20T13:34:34;95573.09;;;6.41;88.64
56668;BME280;42542;48.360;10.958;2022-11-20T13:37:37;95574.38;;;6.37;88.66
56668;BME280;42542;48.360;10.958;2022-11-20T13:40:56;95577.16;;;6.35;88.97
56668;BME280;42542;48.360;10.958;2022-11-20T13:44:05;95564.38;;;6.31;89.58
56668;BME280;42542;48.360;10.958;2022-11-20T13:47:23;95575.97;;;6.30;88.87
56668;BME280;42542;48.360;10.958;2022-11-20T13:50:48;95567.84;;;6.31;88.52
56668;BME280;42542;48.360;10.958;2022-11-20T14:00:51;95564.50;;;6.29;88.93
56668;BME280;42542;48.360;10.958;2022-11-20T14:03:57;95569.53;;;6.32;89.46
56668;BME280;42542;48.360;10.958;2022-11-20T14:07:07;95564.88;;;6.34;88.74
56668;BME280;42542;48.360;10.958;2022-11-20T14:10:22;95570.88;;;6.36;89.01
56668;BME280;42542;48.360;10.958;2022-11-20T14:13:31;95567.72;;;6.33;88.74
56668;BME280;42542;48.360;10.958;2022-11-20T14:16:35;95580.97;;;6.33;88.48
56668;BME280;42542;48.360;10.958;2022-11-20T14:19:38;95565.06;;;6.33;88.69
56668;BME280;42542;48.360;10.958;2022-11-20T14:22:52;95562.84;;;6.28;89.10
56668;BME280;42542;48.360;10.958;2022-11-20T14:25:54;95568.38;;;6.35;88.93
56668;BME280;42542;48.360;10.958;2022-11-20T14:28:57;95577.84;;;6.37;89.61
56668;BME280;42542;48.360;10.958;2022-11-20T14:31:58;95570.59;;;6.39;89.73
56668;BME280;42542;48.360;10.958;2022-11-20T14:35:07;95569.59;;;6.40;89.03
56668;BME280;42542;48.360;10.958;2022-11-20T14:38:13;95567.38;;;6.36;88.78
56668;BME280;42542;48.360;10.958;2022-11-20T14:41:23;95565.72;;;6.35;87.90
56668;BME280;42542;48.360;10.958;2022-11-20T14:44:31;95558.75;;;6.34;88.08
56668;BME280;42542;48.360;10.958;2022-11-20T14:47:34;95558.75;;;6.34;88.61
56668;BME280;42542;48.360;10.958;2022-11-20T14:50:38;95565.88;;;6.33;88.24
56668;BME280;42542;48.360;10.958;2022-11-20T14:53:39;95554.59;;;6.31;88.68
56668;BME280;42542;48.360;10.958;2022-11-20T14:56:42;95564.22;;;6.32;88.60
56668;BME280;42542;48.360;10.958;2022-11-20T15:03:15;95561.72;;;6.31;88.51
56668;BME280;42542;48.360;10.958;2022-11-20T15:06:25;95558.91;;;6.32;88.56
56668;BME280;42542;48.360;10.958;2022-11-20T15:09:27;95552.91;;;6.30;89.08
56668;BME280;42542;48.360;10.958;2022-11-20T15:12:31;95555.72;;;6.28;88.64
56668;BME280;42542;48.360;10.958;2022-11-20T15:15:38;95564.66;;;6.27;88.98
56668;BME280;42542;48.360;10.958;2022-11-20T15:18:43;95558.00;;;6.23;89.47
56668;BME280;42542;48.360;10.958;2022-11-20T15:21:45;95565.41;;;6.20;89.59
56668;BME280;42542;48.360;10.958;2022-11-20T15:24:50;95551.25;;;6.11;89.91
56668;BME280;42542;48.360;10.958;2022-11-20T15:27:56;95553.72;;;6.13;90.90
56668;BME280;42542;48.360;10.958;2022-11-20T15:30:59;95551.03;;;6.05;89.69
56668;BME280;42542;48.360;10.958;2022-11-20T15:34:01;95552.28;;;6.01;89.32
56668;BME280;42542;48.360;10.958;2022-11-20T15:37:02;95546.47;;;5.97;89.83
56668;BME280;42542;48.360;10.958;2022-11-20T15:40:05;95549.41;;;5.94;89.53
56668;BME280;42542;48.360;10.958;2022-11-20T15:43:07;95546.06;;;5.92;89.21
56668;BME280;42542;48.360;10.958;2022-11-20T15:46:16;95551.69;;;5.89;89.25
56668;BME280;42542;48.360;10.958;2022-11-20T15:49:18;95553.75;;;5.85;88.82
56668;BME280;42542;48.360;10.958;2022-11-20T15:52:20;95544.97;;;5.85;89.25
56668;BME280;42542;48.360;10.958;2022-11-20T15:55:21;95547.47;;;5.86;89.75
56668;BME280;42542;48.360;10.958;2022-11-20T15:58:23;95548.44;;;5.85;89.03
56668;BME280;42542;48.360;10.958;2022-11-20T16:01:27;95537.19;;;5.83;89.55
56668;BME280;42542;48.360;10.958;2022-11-20T16:04:29;95538.16;;;5.82;89.65
56668;BME280;42542;48.360;10.958;2022-11-20T16:07:31;95536.63;;;5.80;89.14
56668;BME280;42542;48.360;10.958;2022-11-20T16:10:35;95540.25;;;5.79;89.47
56668;BME280;42542;48.360;10.958;2022-11-20T16:13:39;95524.50;;;5.77;89.51
56668;BME280;42542;48.360;10.958;2022-11-20T16:17:00;95524.50;;;5.77;89.19
56668;BME280;42542;48.360;10.958;2022-11-20T16:20:03;95520.47;;;5.73;89.78
56668;BME280;42542;48.360;10.958;2022-11-20T16:23:05;95518.66;;;5.74;89.82
56668;BME280;42542;48.360;10.958;2022-11-20T16:26:17;95513.22;;;5.75;90.21
56668;BME280;42542;48.360;10.958;2022-11-20T16:29:20;95516.84;;;5.74;90.40
56668;BME280;42542;48.360;10.958;2022-11-20T16:32:22;95514.34;;;5.73;90.47
56668;BME280;42542;48.360;10.958;2022-11-20T16:35:25;95518.94;;;5.71;90.53
56668;BME280;42542;48.360;10.958;2022-11-20T16:38:28;95517.28;;;5.70;90.50
56668;BME280;42542;48.360;10.958;2022-11-20T16:41:34;95517.28;;;5.70;91.07
56668;BME280;42542;48.360;10.958;2022-11-20T16:44:38;95512.66;;;5.72;91.77
56668;BME280;42542;48.360;10.958;2022-11-20T16:47:40;95501.38;;;5.70;91.43
56668;BME280;42542;48.360;10.958;2022-11-20T16:50:54;95508.66;;;5.68;91.22
56668;BME280;42542;48.360;10.958;2022-11-20T16:53:56;95496.97;;;5.61;90.53
56668;BME280;42542;48.360;10.958;2022-11-20T16:56:58;95492.81;;;5.58;90.43
56668;BME280;42542;48.360;10.958;2022-11-20T17:00:00;95490.00;;;5.60;90.70
56668;BME280;42542;48.360;10.958;2022-11-20T17:03:04;95489.19;;;5.59;90.75
56668;BME280;42542;48.360;10.958;2022-11-20T17:06:16;95487.66;;;5.57;91.01
56668;BME280;42542;48.360;10.958;2022-11-20T17:09:18;95492.44;;;5.53;91.21
56668;BME280;42542;48.360;10.958;2022-11-20T17:12:20;95483.63;;;5.53;91.11
56668;BME280;42542;48.360;10.958;2022-11-20T17:15:22;95485.44;;;5.52;91.50
56668;BME280;42542;48.360;10.958;2022-11-20T17:18:23;95475.13;;;5.49;91.73
56668;BME280;42542;48.360;10.958;2022-11-20T17:21:27;95473.63;;;5.46;92.00
56668;BME280;42542;48.360;10.958;2022-11-20T17:24:30;95488.97;;;5.43;92.41
56668;BME280;42542;48.360;10.958;2022-11-20T17:27:32;95479.50;;;5.40;92.32
56668;BME280;42542;48.360;10.958;2022-11-20T17:30:34;95483.16;;;5.39;92.66
56668;BME280;42542;48.360;10.958;2022-11-20T17:33:38;95481.50;;;5.38;92.87
56668;BME280;42542;48.360;10.958;2022-11-20T17:36:40;95482.47;;;5.37;93.36
56668;BME280;42542;48.360;10.958;2022-11-20T17:39:47;95476.47;;;5.35;93.12
56668;BME280;42542;48.360;10.958;2022-11-20T17:42:49;95476.78;;;5.32;93.37
56668;BME280;42542;48.360;10.958;2022-11-20T17:45:51;95484.03;;;5.30;93.58
56668;BME280;42542;48.360;10.958;2022-11-20T17:48:52;95478.88;;;5.29;93.74
56668;BME280;42542;48.360;10.958;2022-11-20T17:51:55;95454.41;;;5.17;93.69
56668;BME280;42542;48.360;10.958;2022-11-20T17:54:56;95469.16;;;5.20;93.43